createdAt,value
2022-12-04T00:00:38.664Z,99.99
2022-12-04T00:01:41.695Z,99.99
2022-12-04T00:02:41.683Z,99.99
2022-12-04T00:03:38.622Z,99.99
2022-12-04T00:04:38.667Z,99.99
2022-12-04T00:05:38.585Z,99.99
2022-12-04T00:06:38.585Z,99.99
2022-12-04T00:07:38.638Z,99.99
2022-12-04T00:08:38.553Z,99.99
2022-12-04T00:09:38.535Z,99.99
2022-12-04T00:10:38.526Z,99.99
2022-12-04T00:11:38.509Z,99.99
2022-12-04T00:12:38.489Z,99.99
2022-12-04T00:13:38.515Z,99.99
2022-12-04T00:15:08.060Z,99.99
2022-12-04T00:15:39.477Z,99.99
2022-12-04T00:16:38.516Z,99.99
2022-12-04T00:17:38.499Z,99.99
2022-12-04T00:18:38.425Z,99.99
2022-12-04T00:19:38.401Z,99.99
2022-12-04T00:20:38.398Z,99.99
2022-12-04T00:21:41.377Z,99.99
2022-12-04T00:22:41.398Z,99.99
2022-12-04T00:23:38.357Z,99.99
2022-12-04T00:24:38.335Z,99.99
2022-12-04T00:25:41.292Z,99.99
2022-12-04T00:26:38.301Z,99.99
2022-12-04T00:27:38.326Z,99.99
2022-12-04T00:28:38.280Z,99.99
2022-12-04T00:29:38.262Z,99.99
2022-12-04T00:30:38.288Z,99.99
2022-12-04T00:31:38.340Z,99.99
2022-12-04T00:32:38.279Z,99.99
2022-12-04T00:33:38.218Z,99.99
2022-12-04T00:34:38.205Z,99.99
2022-12-04T00:35:38.191Z,99.99
2022-12-04T00:36:38.170Z,99.99
2022-12-04T00:37:38.166Z,99.99
2022-12-04T00:38:38.171Z,99.99
2022-12-04T00:39:38.131Z,99.99
2022-12-04T00:40:38.121Z,99.99
2022-12-04T00:41:41.102Z,99.99
2022-12-04T00:42:41.092Z,99.99
2022-12-04T00:43:38.122Z,99.99
2022-12-04T00:44:38.062Z,99.99
2022-12-04T00:45:38.082Z,99.99
2022-12-04T00:46:38.034Z,99.99
2022-12-04T00:47:38.024Z,99.99
2022-12-04T00:48:38.016Z,99.84
2022-12-04T00:49:38.019Z,99.73
2022-12-04T00:50:37.990Z,99.31
2022-12-04T00:51:37.964Z,99.63
2022-12-04T00:52:37.953Z,99.94
2022-12-04T00:53:37.955Z,99.63
2022-12-04T00:54:37.952Z,99.63
2022-12-04T00:55:37.904Z,99.41
2022-12-04T00:56:37.906Z,99.41
2022-12-04T00:57:37.884Z,99.41
2022-12-04T00:58:37.922Z,99.21
2022-12-04T00:59:37.853Z,98.89
2022-12-04T01:00:37.935Z,98.68
2022-12-04T01:01:40.918Z,98.47
2022-12-04T01:02:40.916Z,98.47
2022-12-04T01:03:37.802Z,98.58
2022-12-04T01:04:37.835Z,98.68
2022-12-04T01:05:37.791Z,98.79
2022-12-04T01:06:37.755Z,98.58
2022-12-04T01:07:37.827Z,98.37
2022-12-04T01:08:37.733Z,98.05
2022-12-04T01:09:37.724Z,97.95
2022-12-04T01:10:37.765Z,98.05
2022-12-04T01:11:37.696Z,98.16
2022-12-04T01:12:37.676Z,98.05
2022-12-04T01:13:37.676Z,98.05
2022-12-04T01:14:37.655Z,98.16
2022-12-04T01:15:37.641Z,97.95
2022-12-04T01:16:37.729Z,97.85
2022-12-04T01:17:37.608Z,98.05
2022-12-04T01:18:37.587Z,97.63
2022-12-04T01:19:37.577Z,97.32
2022-12-04T01:20:37.578Z,97.32
2022-12-04T01:21:40.596Z,97.95
2022-12-04T01:22:40.546Z,98.05
2022-12-04T01:23:37.527Z,97.74
2022-12-04T01:24:37.516Z,97.42
2022-12-04T01:25:37.498Z,97.11
2022-12-04T01:26:37.488Z,96.69
2022-12-04T01:27:37.500Z,96.69
2022-12-04T01:28:37.455Z,96.90
2022-12-04T01:29:37.449Z,97.22
2022-12-04T01:30:37.438Z,97.11
2022-12-04T01:31:37.535Z,97.11
2022-12-04T01:32:37.458Z,97.11
2022-12-04T01:33:37.390Z,96.86
2022-12-04T01:34:37.375Z,96.80
2022-12-04T01:35:37.365Z,96.55
2022-12-04T01:36:37.359Z,96.96
2022-12-04T01:37:37.342Z,96.86
2022-12-04T01:38:37.347Z,96.86
2022-12-04T01:39:37.360Z,96.96
2022-12-04T01:40:37.297Z,96.86
2022-12-04T01:41:40.279Z,96.96
2022-12-04T01:42:40.282Z,96.96
2022-12-04T01:43:37.249Z,96.96
2022-12-04T01:44:37.243Z,96.96
2022-12-04T01:45:37.337Z,96.86
2022-12-04T01:46:37.215Z,97.38
2022-12-04T01:47:37.200Z,97.06
2022-12-04T01:48:37.190Z,97.06
2022-12-04T01:49:37.204Z,97.28
2022-12-04T01:50:37.154Z,97.28
2022-12-04T01:51:37.142Z,97.38
2022-12-04T01:52:37.141Z,97.28
2022-12-04T01:53:37.141Z,96.96
2022-12-04T01:54:37.111Z,96.44
2022-12-04T01:55:37.103Z,96.75
2022-12-04T01:56:37.093Z,96.86
2022-12-04T01:57:37.051Z,96.65
2022-12-04T01:58:37.080Z,96.65
2022-12-04T01:59:37.054Z,96.55
2022-12-04T02:00:37.042Z,96.55
2022-12-04T02:01:40.040Z,96.65
2022-12-04T02:02:40.120Z,96.44
2022-12-04T02:03:36.983Z,96.33
2022-12-04T02:04:36.962Z,96.44
2022-12-04T02:05:37.004Z,96.33
2022-12-04T02:06:36.943Z,95.92
2022-12-04T02:07:36.969Z,96.44
2022-12-04T02:08:36.912Z,96.75
2022-12-04T02:09:36.893Z,96.86
2022-12-04T02:10:36.893Z,96.65
2022-12-04T02:11:36.901Z,96.96
2022-12-04T02:12:36.864Z,97.17
2022-12-04T02:13:36.844Z,96.65
2022-12-04T02:14:36.834Z,96.65
2022-12-04T02:15:36.833Z,97.06
2022-12-04T02:16:36.961Z,97.06
2022-12-04T02:17:36.794Z,97.28
2022-12-04T02:18:36.785Z,96.96
2022-12-04T02:19:36.765Z,96.65
2022-12-04T02:20:36.768Z,96.55
2022-12-04T02:21:39.800Z,96.44
2022-12-04T02:22:39.743Z,96.33
2022-12-04T02:23:36.724Z,96.65
2022-12-04T02:24:36.705Z,96.44
2022-12-04T02:25:36.692Z,96.44
2022-12-04T02:26:36.676Z,96.65
2022-12-04T02:27:36.684Z,96.65
2022-12-04T02:28:36.664Z,96.44
2022-12-04T02:29:36.636Z,96.44
2022-12-04T02:30:36.672Z,96.44
2022-12-04T02:31:36.605Z,96.23
2022-12-04T02:32:36.599Z,96.12
2022-12-04T02:33:36.607Z,96.23
2022-12-04T02:34:36.576Z,96.23
2022-12-04T02:35:36.554Z,96.33
2022-12-04T02:36:36.534Z,96.23
2022-12-04T02:37:36.518Z,95.70
2022-12-04T02:38:36.543Z,95.92
2022-12-04T02:39:36.496Z,95.92
2022-12-04T02:40:36.515Z,95.92
2022-12-04T02:41:39.458Z,95.81
2022-12-04T02:42:39.469Z,95.92
2022-12-04T02:43:36.448Z,95.92
2022-12-04T02:44:36.431Z,96.55
2022-12-04T02:45:36.481Z,96.33
2022-12-04T02:46:36.517Z,96.44
2022-12-04T02:47:36.388Z,96.65
2022-12-04T02:48:36.377Z,96.75
2022-12-04T02:49:36.357Z,96.65
2022-12-04T02:50:36.377Z,96.33
2022-12-04T02:51:36.359Z,95.92
2022-12-04T02:52:36.330Z,95.81
2022-12-04T02:53:36.310Z,96.08
2022-12-04T02:54:36.292Z,96.33
2022-12-04T02:55:36.304Z,96.44
2022-12-04T02:56:36.289Z,96.44
2022-12-04T02:57:36.249Z,96.55
2022-12-04T02:58:36.245Z,96.33
2022-12-04T02:59:36.222Z,96.23
2022-12-04T03:00:36.211Z,96.33
2022-12-04T03:01:39.349Z,96.44
2022-12-04T03:02:39.229Z,96.19
2022-12-04T03:03:36.162Z,96.33
2022-12-04T03:04:36.173Z,96.44
2022-12-04T03:05:36.144Z,96.12
2022-12-04T03:06:36.122Z,95.81
2022-12-04T03:07:36.195Z,95.70
2022-12-04T03:08:36.112Z,96.12
2022-12-04T03:09:36.093Z,96.33
2022-12-04T03:10:43.597Z,96.23
2022-12-04T03:11:36.058Z,95.87
2022-12-04T03:12:36.038Z,96.19
2022-12-04T03:13:36.058Z,96.50
2022-12-04T03:14:36.028Z,96.44
2022-12-04T03:15:36.010Z,96.23
2022-12-04T03:16:36.043Z,96.19
2022-12-04T03:17:35.977Z,96.39
2022-12-04T03:18:35.998Z,96.29
2022-12-04T03:19:35.959Z,96.19
2022-12-04T03:20:35.943Z,96.29
2022-12-04T03:21:38.920Z,96.08
2022-12-04T03:22:38.927Z,95.98
2022-12-04T03:23:35.923Z,95.66
2022-12-04T03:24:35.916Z,95.25
2022-12-04T03:25:35.868Z,95.56
2022-12-04T03:26:35.908Z,96.08
2022-12-04T03:27:35.848Z,96.29
2022-12-04T03:28:35.846Z,96.08
2022-12-04T03:29:35.833Z,96.19
2022-12-04T03:30:35.862Z,96.19
2022-12-04T03:31:35.791Z,96.29
2022-12-04T03:32:35.768Z,96.39
2022-12-04T03:33:35.772Z,96.71
2022-12-04T03:34:35.780Z,96.71
2022-12-04T03:35:35.739Z,96.61
2022-12-04T03:36:35.729Z,96.39
2022-12-04T03:37:35.700Z,96.29
2022-12-04T03:38:35.683Z,96.39
2022-12-04T03:39:35.700Z,96.61
2022-12-04T03:40:35.660Z,96.61
2022-12-04T03:41:38.698Z,96.92
2022-12-04T03:42:38.650Z,97.34
2022-12-04T03:43:35.620Z,97.02
2022-12-04T03:44:35.650Z,96.81
2022-12-04T03:45:35.590Z,96.71
2022-12-04T03:46:35.638Z,97.13
2022-12-04T03:47:35.591Z,97.02
2022-12-04T03:48:35.554Z,96.92
2022-12-04T03:49:35.541Z,96.92
2022-12-04T03:50:35.533Z,97.13
2022-12-04T03:51:35.521Z,97.44
2022-12-04T03:52:35.542Z,97.44
2022-12-04T03:53:35.475Z,97.34
2022-12-04T03:54:35.475Z,97.23
2022-12-04T03:55:35.452Z,97.23
2022-12-04T03:56:35.441Z,97.13
2022-12-04T03:57:35.423Z,97.13
2022-12-04T03:58:35.444Z,97.13
2022-12-04T03:59:35.392Z,97.55
2022-12-04T04:00:35.393Z,97.44
2022-12-04T04:01:38.413Z,97.23
2022-12-04T04:02:38.441Z,97.02
2022-12-04T04:03:35.395Z,96.88
2022-12-04T04:04:35.342Z,96.81
2022-12-04T04:05:35.325Z,97.34
2022-12-04T04:06:35.311Z,97.29
2022-12-04T04:07:35.997Z,97.08
2022-12-04T04:08:35.275Z,96.98
2022-12-04T04:09:35.286Z,96.66
2022-12-04T04:10:35.266Z,96.88
2022-12-04T04:11:35.243Z,96.66
2022-12-04T04:12:35.238Z,96.66
2022-12-04T04:13:35.234Z,96.77
2022-12-04T04:14:35.204Z,97.08
2022-12-04T04:15:35.272Z,96.77
2022-12-04T04:16:35.166Z,96.66
2022-12-04T04:17:38.752Z,96.66
2022-12-04T04:18:35.151Z,96.45
2022-12-04T04:19:35.127Z,96.25
2022-12-04T04:20:35.136Z,96.25
2022-12-04T04:21:38.123Z,96.56
2022-12-04T04:22:38.099Z,96.77
2022-12-04T04:23:35.067Z,96.56
2022-12-04T04:24:35.056Z,96.56
2022-12-04T04:25:35.096Z,96.25
2022-12-04T04:26:35.030Z,96.14
2022-12-04T04:27:35.007Z,96.25
2022-12-04T04:28:35.015Z,96.04
2022-12-04T04:29:34.997Z,95.83
2022-12-04T04:30:34.986Z,95.51
2022-12-04T04:31:35.055Z,95.41
2022-12-04T04:32:34.964Z,95.20
2022-12-04T04:33:34.931Z,95.31
2022-12-04T04:34:34.943Z,95.62
2022-12-04T04:35:34.909Z,95.41
2022-12-04T04:36:34.957Z,95.31
2022-12-04T04:37:34.889Z,95.20
2022-12-04T04:38:34.869Z,95.20
2022-12-04T04:39:34.866Z,95.09
2022-12-04T04:40:34.844Z,95.31
2022-12-04T04:41:37.869Z,95.31
2022-12-04T04:42:37.829Z,95.41
2022-12-04T04:43:34.807Z,95.41
2022-12-04T04:44:34.785Z,95.31
2022-12-04T04:45:34.771Z,95.09
2022-12-04T04:46:34.764Z,94.99
2022-12-04T04:47:34.778Z,95.31
2022-12-04T04:48:34.729Z,95.20
2022-12-04T04:49:34.724Z,94.99
2022-12-04T04:50:34.712Z,95.09
2022-12-04T04:51:34.687Z,95.09
2022-12-04T04:52:34.700Z,95.09
2022-12-04T04:53:34.652Z,94.99
2022-12-04T04:54:34.649Z,94.99
2022-12-04T04:55:34.700Z,94.78
2022-12-04T04:56:34.611Z,94.36
2022-12-04T04:57:34.611Z,94.36
2022-12-04T04:58:34.588Z,94.36
2022-12-04T04:59:34.667Z,94.05
2022-12-04T05:00:34.572Z,93.95
2022-12-04T05:01:37.632Z,94.05
2022-12-04T05:02:37.590Z,94.05
2022-12-04T05:03:34.549Z,94.26
2022-12-04T05:04:34.511Z,94.15
2022-12-04T05:05:34.503Z,94.15
2022-12-04T05:06:34.504Z,94.15
2022-12-04T05:07:34.534Z,94.15
2022-12-04T05:08:34.446Z,94.05
2022-12-04T05:09:38.210Z,93.84
2022-12-04T05:10:35.436Z,94.05
2022-12-04T05:11:34.401Z,94.26
2022-12-04T05:12:34.463Z,93.95
2022-12-04T05:13:34.375Z,93.84
2022-12-04T05:14:34.374Z,93.74
2022-12-04T05:15:34.353Z,93.74
2022-12-04T05:16:34.401Z,93.52
2022-12-04T05:17:34.333Z,93.63
2022-12-04T05:18:34.374Z,93.74
2022-12-04T05:19:34.307Z,93.74
2022-12-04T05:20:34.303Z,93.52
2022-12-04T05:21:37.265Z,93.32
2022-12-04T05:22:37.273Z,93.52
2022-12-04T05:23:34.255Z,93.42
2022-12-04T05:24:34.276Z,93.52
2022-12-04T05:25:34.205Z,93.63
2022-12-04T05:26:34.208Z,93.52
2022-12-04T05:27:34.183Z,93.11
2022-12-04T05:28:34.185Z,93.52
2022-12-04T05:29:35.942Z,93.74
2022-12-04T05:30:34.176Z,93.74
2022-12-04T05:31:34.197Z,93.80
2022-12-04T05:32:34.116Z,93.63
2022-12-04T05:33:34.156Z,93.27
2022-12-04T05:34:34.102Z,93.17
2022-12-04T05:35:34.077Z,93.17
2022-12-04T05:36:34.067Z,92.96
2022-12-04T05:37:34.054Z,93.11
2022-12-04T05:38:34.043Z,92.85
2022-12-04T05:39:34.047Z,92.65
2022-12-04T05:40:34.024Z,92.85
2022-12-04T05:41:37.005Z,93.07
2022-12-04T05:42:36.997Z,93.07
2022-12-04T05:43:33.967Z,92.96
2022-12-04T05:44:33.991Z,93.17
2022-12-04T05:45:33.936Z,93.17
2022-12-04T05:46:33.945Z,93.07
2022-12-04T05:47:33.914Z,93.07
2022-12-04T05:48:33.922Z,92.96
2022-12-04T05:49:33.888Z,92.96
2022-12-04T05:50:33.903Z,92.85
2022-12-04T05:51:33.855Z,92.85
2022-12-04T05:52:33.878Z,92.75
2022-12-04T05:53:33.831Z,92.65
2022-12-04T05:54:33.839Z,93.07
2022-12-04T05:55:33.859Z,92.96
2022-12-04T05:56:33.792Z,92.85
2022-12-04T05:57:33.779Z,92.75
2022-12-04T05:58:33.763Z,92.75
2022-12-04T05:59:33.761Z,92.54
2022-12-04T06:00:33.758Z,92.44
2022-12-04T06:01:36.802Z,92.44
2022-12-04T06:02:36.822Z,92.44
2022-12-04T06:03:33.771Z,92.44
2022-12-04T06:04:33.688Z,92.23
2022-12-04T06:05:33.679Z,92.02
2022-12-04T06:06:33.711Z,91.91
2022-12-04T06:07:33.699Z,92.23
2022-12-04T06:08:33.639Z,92.13
2022-12-04T06:09:33.629Z,91.91
2022-12-04T06:10:33.612Z,91.81
2022-12-04T06:11:33.595Z,91.81
2022-12-04T06:12:33.593Z,91.81
2022-12-04T06:13:33.569Z,91.91
2022-12-04T06:14:39.092Z,91.60
2022-12-04T06:15:34.530Z,91.64
2022-12-04T06:16:33.609Z,91.28
2022-12-04T06:17:33.504Z,91.12
2022-12-04T06:18:33.494Z,91.33
2022-12-04T06:19:33.485Z,91.12
2022-12-04T06:20:33.553Z,91.18
2022-12-04T06:21:36.507Z,90.91
2022-12-04T06:22:36.463Z,90.77
2022-12-04T06:23:33.423Z,90.70
2022-12-04T06:24:33.406Z,90.59
2022-12-04T06:25:33.396Z,90.45
2022-12-04T06:26:33.385Z,90.59
2022-12-04T06:27:33.421Z,90.39
2022-12-04T06:28:33.404Z,90.18
2022-12-04T06:29:33.354Z,90.18
2022-12-04T06:30:33.346Z,90.18
2022-12-04T06:31:33.402Z,89.97
2022-12-04T06:32:33.316Z,89.76
2022-12-04T06:33:33.316Z,89.86
2022-12-04T06:34:33.285Z,89.76
2022-12-04T06:35:33.265Z,89.55
2022-12-04T06:36:33.255Z,89.45
2022-12-04T06:37:33.238Z,89.23
2022-12-04T06:38:33.255Z,89.03
2022-12-04T06:39:33.217Z,89.03
2022-12-04T06:40:33.256Z,89.03
2022-12-04T06:41:36.177Z,88.92
2022-12-04T06:42:36.176Z,88.82
2022-12-04T06:43:33.151Z,88.61
2022-12-04T06:44:33.126Z,88.40
2022-12-04T06:45:33.164Z,88.82
2022-12-04T06:46:33.147Z,88.50
2022-12-04T06:47:33.100Z,88.71
2022-12-04T06:48:33.077Z,88.40
2022-12-04T06:49:33.075Z,88.19
2022-12-04T06:50:33.060Z,88.19
2022-12-04T06:51:33.076Z,88.19
2022-12-04T06:52:33.021Z,88.40
2022-12-04T06:53:33.007Z,88.19
2022-12-04T06:54:33.041Z,87.88
2022-12-04T06:55:32.980Z,87.66
2022-12-04T06:56:33.008Z,87.56
2022-12-04T06:57:32.958Z,87.98
2022-12-04T06:58:32.939Z,87.77
2022-12-04T06:59:32.930Z,87.88
2022-12-04T07:00:32.920Z,87.88
2022-12-04T07:01:36.052Z,87.66
2022-12-04T07:02:36.022Z,87.56
2022-12-04T07:03:32.888Z,87.35
2022-12-04T07:04:32.871Z,87.46
2022-12-04T07:05:32.851Z,87.35
2022-12-04T07:06:32.861Z,87.35
2022-12-04T07:07:32.880Z,87.25
2022-12-04T07:08:32.840Z,87.15
2022-12-04T07:09:32.810Z,87.25
2022-12-04T07:10:32.811Z,87.46
2022-12-04T07:11:32.800Z,87.25
2022-12-04T07:12:32.752Z,87.15
2022-12-04T07:13:32.754Z,87.35
2022-12-04T07:14:32.780Z,87.35
2022-12-04T07:15:32.721Z,87.35
2022-12-04T07:16:36.866Z,87.56
2022-12-04T07:17:33.693Z,87.56
2022-12-04T07:18:32.680Z,87.35
2022-12-04T07:19:32.660Z,87.35
2022-12-04T07:20:32.713Z,87.25
2022-12-04T07:21:35.640Z,87.35
2022-12-04T07:22:35.632Z,87.66
2022-12-04T07:23:32.604Z,87.56
2022-12-04T07:24:32.592Z,87.98
2022-12-04T07:25:32.582Z,87.77
2022-12-04T07:26:32.624Z,87.66
2022-12-04T07:27:32.554Z,87.35
2022-12-04T07:28:32.535Z,87.25
2022-12-04T07:29:32.525Z,87.04
2022-12-04T07:30:32.520Z,87.25
2022-12-04T07:31:32.560Z,87.15
2022-12-04T07:32:32.504Z,87.15
2022-12-04T07:33:32.473Z,87.15
2022-12-04T07:34:32.450Z,87.15
2022-12-04T07:35:32.446Z,87.25
2022-12-04T07:36:32.426Z,87.00
2022-12-04T07:37:32.441Z,87.31
2022-12-04T07:38:32.396Z,87.46
2022-12-04T07:39:32.436Z,87.31
2022-12-04T07:40:32.374Z,87.52
2022-12-04T07:41:35.356Z,87.88
2022-12-04T07:42:35.358Z,87.63
2022-12-04T07:43:32.335Z,87.52
2022-12-04T07:44:32.325Z,87.52
2022-12-04T07:45:32.435Z,87.31
2022-12-04T07:46:32.379Z,87.63
2022-12-04T07:47:32.277Z,87.52
2022-12-04T07:48:33.569Z,87.63
2022-12-04T07:49:32.247Z,87.42
2022-12-04T07:50:32.236Z,87.42
2022-12-04T07:51:32.262Z,87.73
2022-12-04T07:52:32.198Z,87.73
2022-12-04T07:53:32.186Z,87.42
2022-12-04T07:54:32.179Z,87.52
2022-12-04T07:55:32.220Z,87.52
2022-12-04T07:56:32.150Z,87.73
2022-12-04T07:57:32.139Z,87.63
2022-12-04T07:58:32.117Z,87.42
2022-12-04T07:59:32.107Z,87.52
2022-12-04T08:00:32.097Z,87.73
2022-12-04T08:01:35.200Z,87.52
2022-12-04T08:02:35.097Z,87.63
2022-12-04T08:03:32.068Z,87.94
2022-12-04T08:04:32.059Z,87.84
2022-12-04T08:05:32.030Z,87.63
2022-12-04T08:06:32.019Z,87.52
2022-12-04T08:07:32.084Z,87.42
2022-12-04T08:08:31.981Z,87.52
2022-12-04T08:09:31.969Z,87.84
2022-12-04T08:10:31.967Z,87.73
2022-12-04T08:11:31.969Z,88.15
2022-12-04T08:12:31.944Z,88.26
2022-12-04T08:13:31.919Z,88.15
2022-12-04T08:14:31.902Z,87.84
2022-12-04T08:15:31.889Z,88.15
2022-12-04T08:16:31.978Z,87.84
2022-12-04T08:17:31.865Z,87.63
2022-12-04T08:18:31.849Z,87.42
2022-12-04T08:19:31.841Z,87.31
2022-12-04T08:20:31.831Z,87.52
2022-12-04T08:21:34.844Z,87.63
2022-12-04T08:22:34.827Z,88.04
2022-12-04T08:23:31.781Z,87.84
2022-12-04T08:24:31.762Z,87.63
2022-12-04T08:25:31.752Z,88.36
2022-12-04T08:26:31.786Z,88.46
2022-12-04T08:27:31.729Z,88.57
2022-12-04T08:28:31.711Z,88.36
2022-12-04T08:29:31.698Z,88.46
2022-12-04T08:30:31.742Z,88.57
2022-12-04T08:31:31.760Z,88.53
2022-12-04T08:32:31.862Z,88.42
2022-12-04T08:33:31.652Z,88.95
2022-12-04T08:34:31.630Z,88.84
2022-12-04T08:35:31.623Z,88.95
2022-12-04T08:36:31.602Z,88.84
2022-12-04T08:37:31.592Z,88.84
2022-12-04T08:38:31.637Z,88.95
2022-12-04T08:39:31.575Z,88.95
2022-12-04T08:40:31.555Z,88.84
2022-12-04T08:41:34.540Z,88.74
2022-12-04T08:42:34.546Z,88.84
2022-12-04T08:43:31.542Z,88.74
2022-12-04T08:44:31.531Z,88.64
2022-12-04T08:45:31.494Z,88.84
2022-12-04T08:46:31.574Z,89.15
2022-12-04T08:47:31.473Z,89.15
2022-12-04T08:48:31.456Z,88.84
2022-12-04T08:49:31.463Z,88.74
2022-12-04T08:50:31.438Z,88.84
2022-12-04T08:51:31.415Z,88.74
2022-12-04T08:52:31.385Z,88.64
2022-12-04T08:53:31.384Z,88.64
2022-12-04T08:54:35.920Z,88.84
2022-12-04T08:55:31.404Z,88.95
2022-12-04T08:56:31.351Z,89.36
2022-12-04T08:57:31.326Z,89.36
2022-12-04T08:58:31.365Z,89.26
2022-12-04T08:59:31.327Z,89.58
2022-12-04T09:00:31.293Z,89.58
2022-12-04T09:01:34.351Z,90.09
2022-12-04T09:02:34.276Z,90.31
2022-12-04T09:03:31.335Z,90.06
2022-12-04T09:04:31.353Z,90.41
2022-12-04T09:05:31.215Z,90.58
2022-12-04T09:06:31.206Z,90.47
2022-12-04T09:07:31.234Z,90.47
2022-12-04T09:08:31.177Z,90.26
2022-12-04T09:09:31.156Z,90.26
2022-12-04T09:10:31.196Z,90.47
2022-12-04T09:11:38.648Z,90.58
2022-12-04T09:12:31.124Z,90.89
2022-12-04T09:13:31.113Z,90.68
2022-12-04T09:14:31.093Z,90.68
2022-12-04T09:15:31.199Z,90.68
2022-12-04T09:16:31.193Z,90.89
2022-12-04T09:17:31.050Z,90.68
2022-12-04T09:18:31.042Z,90.58
2022-12-04T09:19:31.025Z,90.58
2022-12-04T09:20:31.024Z,90.47
2022-12-04T09:21:34.034Z,90.37
2022-12-04T09:22:57.831Z,90.68
2022-12-04T09:23:31.972Z,90.68
2022-12-04T09:24:30.981Z,90.47
2022-12-04T09:25:30.991Z,90.47
2022-12-04T09:26:30.977Z,90.58
2022-12-04T09:27:30.944Z,91.00
2022-12-04T09:28:30.916Z,90.89
2022-12-04T09:29:30.900Z,90.85
2022-12-04T09:30:30.874Z,90.95
2022-12-04T09:31:30.971Z,91.06
2022-12-04T09:32:30.877Z,90.85
2022-12-04T09:33:30.834Z,90.85
2022-12-04T09:34:30.854Z,91.06
2022-12-04T09:35:30.804Z,91.16
2022-12-04T09:36:30.826Z,91.16
2022-12-04T09:37:30.819Z,91.27
2022-12-04T09:38:30.768Z,91.16
2022-12-04T09:39:30.794Z,91.37
2022-12-04T09:40:37.258Z,91.89
2022-12-04T09:41:34.775Z,92.00
2022-12-04T09:42:33.735Z,91.85
2022-12-04T09:43:30.727Z,92.10
2022-12-04T09:44:30.706Z,92.06
2022-12-04T09:45:30.682Z,91.96
2022-12-04T09:46:30.835Z,92.06
2022-12-04T09:47:30.773Z,92.69
2022-12-04T09:48:30.642Z,92.47
2022-12-04T09:49:30.647Z,92.16
2022-12-04T09:50:30.618Z,92.16
2022-12-04T09:51:30.606Z,92.37
2022-12-04T09:52:30.608Z,92.06
2022-12-04T09:53:30.582Z,92.37
2022-12-04T09:54:30.590Z,92.27
2022-12-04T09:55:30.554Z,92.27
2022-12-04T09:56:30.549Z,92.37
2022-12-04T09:57:30.559Z,92.47
2022-12-04T09:58:30.516Z,92.90
2022-12-04T09:59:30.499Z,92.27
2022-12-04T10:00:30.491Z,91.85
2022-12-04T10:01:33.491Z,92.47
2022-12-04T10:02:33.718Z,92.58
2022-12-04T10:03:30.568Z,92.37
2022-12-04T10:04:30.441Z,92.06
2022-12-04T10:05:30.439Z,92.22
2022-12-04T10:06:30.414Z,93.48
2022-12-04T10:07:30.448Z,93.21
2022-12-04T10:08:30.410Z,93.48
2022-12-04T10:09:30.405Z,93.48
2022-12-04T10:10:30.356Z,93.59
2022-12-04T10:11:32.803Z,93.69
2022-12-04T10:12:30.329Z,93.59
2022-12-04T10:13:30.313Z,93.16
2022-12-04T10:14:30.341Z,92.85
2022-12-04T10:15:30.281Z,93.79
2022-12-04T10:16:30.364Z,93.90
2022-12-04T10:17:32.968Z,93.79
2022-12-04T10:18:30.245Z,93.48
2022-12-04T10:19:30.281Z,93.79
2022-12-04T10:20:30.222Z,93.69
2022-12-04T10:21:33.232Z,93.69
2022-12-04T10:22:33.224Z,93.59
2022-12-04T10:23:30.182Z,93.79
2022-12-04T10:24:30.170Z,94.31
2022-12-04T10:25:30.173Z,94.10
2022-12-04T10:26:30.142Z,93.79
2022-12-04T10:27:30.130Z,93.90
2022-12-04T10:28:30.157Z,93.48
2022-12-04T10:29:30.104Z,94.00
2022-12-04T10:30:30.146Z,94.21
2022-12-04T10:31:30.143Z,93.96
2022-12-04T10:32:30.064Z,93.44
2022-12-04T10:33:30.055Z,94.17
2022-12-04T10:34:30.044Z,94.17
2022-12-04T10:35:30.072Z,94.37
2022-12-04T10:36:30.021Z,94.27
2022-12-04T10:37:29.994Z,94.58
2022-12-04T10:38:29.994Z,94.48
2022-12-04T10:39:29.966Z,94.79
2022-12-04T10:40:29.964Z,94.79
2022-12-04T10:41:32.975Z,94.58
2022-12-04T10:42:32.957Z,94.58
2022-12-04T10:43:29.916Z,94.58
2022-12-04T10:44:29.909Z,94.27
2022-12-04T10:45:29.936Z,93.96
2022-12-04T10:46:29.929Z,93.81
2022-12-04T10:47:29.861Z,94.64
2022-12-04T10:48:29.849Z,94.96
2022-12-04T10:49:29.838Z,94.48
2022-12-04T10:50:29.828Z,94.33
2022-12-04T10:51:29.839Z,94.33
2022-12-04T10:52:29.805Z,94.54
2022-12-04T10:53:29.781Z,94.43
2022-12-04T10:54:29.790Z,94.96
2022-12-04T10:55:29.752Z,94.85
2022-12-04T10:56:29.780Z,94.33
2022-12-04T10:57:29.741Z,94.75
2022-12-04T10:58:29.730Z,94.85
2022-12-04T10:59:29.700Z,94.54
2022-12-04T11:00:29.692Z,94.12
2022-12-04T11:01:32.809Z,94.23
2022-12-04T11:02:32.880Z,94.02
2022-12-04T11:03:29.769Z,94.43
2022-12-04T11:04:29.663Z,94.12
2022-12-04T11:05:29.630Z,93.91
2022-12-04T11:06:29.633Z,93.98
2022-12-04T11:07:29.680Z,94.12
2022-12-04T11:08:29.658Z,94.08
2022-12-04T11:09:29.601Z,93.98
2022-12-04T11:10:29.562Z,94.60
2022-12-04T11:11:29.580Z,94.60
2022-12-04T11:12:29.564Z,94.49
2022-12-04T11:13:29.570Z,94.70
2022-12-04T11:14:29.526Z,94.70
2022-12-04T11:15:29.501Z,94.49
2022-12-04T11:16:29.533Z,94.39
2022-12-04T11:17:29.522Z,94.29
2022-12-04T11:18:29.474Z,94.08
2022-12-04T11:19:29.446Z,94.60
2022-12-04T11:20:29.425Z,94.92
2022-12-04T11:21:32.436Z,94.92
2022-12-04T11:22:32.472Z,94.49
2022-12-04T11:23:29.402Z,94.60
2022-12-04T11:24:29.392Z,95.02
2022-12-04T11:25:29.370Z,94.81
2022-12-04T11:26:29.351Z,94.60
2022-12-04T11:27:29.334Z,94.81
2022-12-04T11:28:44.799Z,95.02
2022-12-04T11:29:30.304Z,95.12
2022-12-04T11:30:29.294Z,95.02
2022-12-04T11:31:29.337Z,94.92
2022-12-04T11:32:29.275Z,95.23
2022-12-04T11:33:29.315Z,95.43
2022-12-04T11:34:29.242Z,95.33
2022-12-04T11:35:29.235Z,95.43
2022-12-04T11:36:29.223Z,95.33
2022-12-04T11:37:29.203Z,95.02
2022-12-04T11:38:29.187Z,95.33
2022-12-04T11:39:29.206Z,95.43
2022-12-04T11:40:29.174Z,95.12
2022-12-04T11:41:32.143Z,94.76
2022-12-04T11:42:32.155Z,94.76
2022-12-04T11:43:29.135Z,94.87
2022-12-04T11:44:29.137Z,94.76
2022-12-04T11:45:29.096Z,94.87
2022-12-04T11:46:29.301Z,94.76
2022-12-04T11:47:29.067Z,95.08
2022-12-04T11:48:29.078Z,95.08
2022-12-04T11:49:29.070Z,95.08
2022-12-04T11:50:29.028Z,94.98
2022-12-04T11:51:29.017Z,95.18
2022-12-04T11:52:29.041Z,95.08
2022-12-04T11:53:29.011Z,94.76
2022-12-04T11:54:28.978Z,94.35
2022-12-04T11:55:29.616Z,94.76
2022-12-04T11:56:28.949Z,94.87
2022-12-04T11:57:28.988Z,94.76
2022-12-04T11:58:28.919Z,94.66
2022-12-04T11:59:28.908Z,94.76
2022-12-04T12:00:28.906Z,94.76
2022-12-04T12:01:31.916Z,94.66
2022-12-04T12:02:32.039Z,94.98
2022-12-04T12:03:28.978Z,94.66
2022-12-04T12:04:28.853Z,94.35
2022-12-04T12:05:28.833Z,94.66
2022-12-04T12:06:28.813Z,94.66
2022-12-04T12:07:28.835Z,94.76
2022-12-04T12:08:28.814Z,95.08
2022-12-04T12:09:28.780Z,95.08
2022-12-04T12:10:28.772Z,95.08
2022-12-04T12:11:28.751Z,94.56
2022-12-04T12:12:28.742Z,94.76
2022-12-04T12:13:28.771Z,95.18
2022-12-04T12:14:28.711Z,94.98
2022-12-04T12:15:28.701Z,95.18
2022-12-04T12:16:28.764Z,94.98
2022-12-04T12:17:28.671Z,94.98
2022-12-04T12:18:28.661Z,95.18
2022-12-04T12:19:28.680Z,95.29
2022-12-04T12:20:28.671Z,94.87
2022-12-04T12:21:31.613Z,94.76
2022-12-04T12:22:31.615Z,94.87
2022-12-04T12:23:28.592Z,94.76
2022-12-04T12:24:28.602Z,94.56
2022-12-04T12:25:28.562Z,95.08
2022-12-04T12:26:28.553Z,95.08
2022-12-04T12:27:28.544Z,95.29
2022-12-04T12:28:28.523Z,95.08
2022-12-04T12:29:28.557Z,94.98
2022-12-04T12:30:28.523Z,95.18
2022-12-04T12:31:28.497Z,95.25
2022-12-04T12:32:28.481Z,95.60
2022-12-04T12:33:28.464Z,95.39
2022-12-04T12:34:28.479Z,95.25
2022-12-04T12:35:28.454Z,95.45
2022-12-04T12:36:28.436Z,95.25
2022-12-04T12:37:28.406Z,95.14
2022-12-04T12:38:28.396Z,95.03
2022-12-04T12:39:28.377Z,95.03
2022-12-04T12:40:28.384Z,95.14
2022-12-04T12:41:31.355Z,95.35
2022-12-04T12:42:31.356Z,95.25
2022-12-04T12:43:28.355Z,95.25
2022-12-04T12:44:28.306Z,95.25
2022-12-04T12:45:28.362Z,95.14
2022-12-04T12:46:28.330Z,94.93
2022-12-04T12:47:28.269Z,95.66
2022-12-04T12:48:28.258Z,95.56
2022-12-04T12:49:28.236Z,95.76
2022-12-04T12:50:28.227Z,95.76
2022-12-04T12:51:30.074Z,95.87
2022-12-04T12:52:28.207Z,95.76